Time;durP1;ratioP1;P1;durP2;ratioP2;P2;SDS_P1;SDS_P2;PMS_P1;PMS_P2;Temp;Humidity;BMP_temperature;BMP_pressure;BME280_temperature;BME280_humidity;BME280_pressure;Samples;Min_cycle;Max_cycle;Signal;HPM_P1;HPM_P2
2022/04/02 00:00:53;;;;;;;21.83;19.67;;;2.40;99.90;;;;;;5033331;28;20480;-67
2022/04/02 00:03:19;;;;;;;21.33;19.23;;;2.40;99.90;;;;;;5033817;28;20172;-67
2022/04/02 00:05:45;;;;;;;22.77;19.43;;;2.40;99.90;;;;;;5033486;28;20226;-68
2022/04/02 00:08:11;;;;;;;19.47;17.47;;;2.50;99.90;;;;;;5033313;28;20216;-68
2022/04/02 00:10:37;;;;;;;21.07;19.07;;;2.50;99.90;;;;;;5031878;28;20461;-68
2022/04/02 00:13:02;;;;;;;19.43;17.53;;;2.50;99.90;;;;;;5033051;28;20199;-68
2022/04/02 00:15:28;;;;;;;18.80;16.93;;;2.50;99.90;;;;;;5033434;28;20168;-68
2022/04/02 00:17:54;;;;;;;22.00;19.70;;;2.50;99.90;;;;;;5015215;28;20423;-68
2022/04/02 00:20:19;;;;;;;22.43;20.23;;;2.50;99.90;;;;;;5031695;28;20182;-68
2022/04/02 00:25:30;;;;;;;21.80;19.60;;;2.40;99.90;;;;;;5032098;28;20182;-67
2022/04/02 00:27:56;;;;;;;20.83;18.60;;;2.50;99.90;;;;;;5033190;28;20761;-67
2022/04/02 00:30:22;;;;;;;23.57;21.07;;;2.50;99.90;;;;;;5032918;28;20420;-67
2022/04/02 00:32:47;;;;;;;20.50;18.50;;;2.40;99.90;;;;;;5032697;28;20215;-67
2022/04/02 00:35:14;;;;;;;22.43;20.33;;;2.40;99.90;;;;;;5032641;28;20284;-68
2022/04/02 00:37:40;;;;;;;20.23;18.13;;;2.40;99.90;;;;;;5031799;28;20174;-68
2022/04/02 00:40:06;;;;;;;19.53;17.53;;;2.40;99.90;;;;;;5032923;28;20448;-68
2022/04/02 00:42:32;;;;;;;20.23;18.17;;;2.40;99.90;;;;;;5032579;28;20462;-68
2022/04/02 00:44:57;;;;;;;22.40;20.20;;;2.70;99.90;;;;;;5014980;28;20432;-68
2022/04/02 00:47:23;;;;;;;20.90;18.80;;;2.70;99.90;;;;;;5032782;28;20636;-68
2022/04/02 00:49:51;;;;;;;21.17;19.07;;;2.80;99.90;;;;;;5032667;28;20164;-68
2022/04/02 00:52:18;;;;;;;22.17;20.07;;;2.80;99.90;;;;;;5032362;28;20199;-68
2022/04/02 00:54:44;;;;;;;21.43;19.33;;;2.70;99.90;;;;;;5019285;28;20418;-68
2022/04/02 00:57:09;;;;;;;20.40;18.43;;;2.70;99.90;;;;;;5012875;28;20415;-68
2022/04/02 00:59:35;;;;;;;19.10;17.30;;;2.70;99.90;;;;;;5014892;28;20489;-68
2022/04/02 01:02:01;;;;;;;23.40;20.80;;;2.70;99.90;;;;;;5016683;28;20204;-68
2022/04/02 01:04:27;;;;;;;22.40;20.20;;;2.70;99.90;;;;;;5016788;28;20175;-68
2022/04/02 01:06:53;;;;;;;20.80;18.70;;;2.70;99.90;;;;;;5017105;28;20613;-68
2022/04/02 01:09:18;;;;;;;19.50;17.70;;;2.80;99.90;;;;;;5031877;28;20475;-67
2022/04/02 01:11:45;;;;;;;20.27;17.87;;;2.80;99.90;;;;;;5036416;28;20541;-67
2022/04/02 01:14:11;;;;;;;19.77;17.90;;;2.60;99.90;;;;;;5036356;28;20179;-67
2022/04/02 01:16:37;;;;;;;18.80;16.90;;;2.60;99.90;;;;;;5036316;28;20413;-68
2022/04/02 01:19:05;;;;;;;21.40;19.23;;;2.60;99.90;;;;;;5036368;28;20410;-68
2022/04/02 01:21:31;;;;;;;20.93;18.80;;;2.70;99.90;;;;;;5036065;28;20461;-68
2022/04/02 01:23:58;;;;;;;20.07;18.07;;;2.60;99.90;;;;;;5015692;28;20411;-68
2022/04/02 01:26:25;;;;;;;20.83;18.77;;;2.50;99.90;;;;;;5039344;28;20432;-68
2022/04/02 01:28:54;;;;;;;19.93;17.83;;;2.60;99.90;;;;;;5036516;28;20796;-68
2022/04/02 01:31:21;;;;;;;20.23;18.27;;;2.80;99.90;;;;;;5036214;28;20804;-67
2022/04/02 01:33:50;;;;;;;19.03;17.13;;;2.80;99.90;;;;;;5036334;28;20887;-67
2022/04/02 01:36:17;;;;;;;19.57;17.47;;;2.80;99.90;;;;;;5036611;28;20413;-66
2022/04/02 01:38:43;;;;;;;20.30;18.23;;;2.90;99.90;;;;;;5034419;28;20409;-66
2022/04/02 01:41:09;;;;;;;19.80;18.00;;;3.10;99.90;;;;;;5035739;28;20874;-66
2022/04/02 01:43:35;;;;;;;19.50;17.60;;;3.00;99.90;;;;;;5036004;28;20406;-67
2022/04/02 01:46:01;;;;;;;19.47;17.53;;;2.90;99.90;;;;;;5035780;28;20171;-67
2022/04/02 01:48:27;;;;;;;21.53;19.43;;;3.10;99.90;;;;;;5035991;28;20402;-67
2022/04/02 01:50:53;;;;;;;19.37;17.57;;;3.10;99.90;;;;;;5017935;28;20406;-67
2022/04/02 01:53:20;;;;;;;20.20;18.00;;;3.30;99.90;;;;;;5035286;28;20450;-67
2022/04/02 01:55:46;;;;;;;17.50;15.83;;;3.40;99.90;;;;;;5035943;28;20179;-67
2022/04/02 01:58:13;;;;;;;17.30;15.77;;;3.30;99.90;;;;;;5035844;28;20406;-67
2022/04/02 02:00:39;;;;;;;19.03;16.67;;;3.20;99.90;;;;;;5035497;28;20417;-67
2022/04/02 02:03:06;;;;;;;18.17;16.37;;;3.10;99.90;;;;;;5035354;28;20442;-67
2022/04/02 02:05:33;;;;;;;18.07;16.40;;;2.90;99.90;;;;;;5035570;28;20950;-67
2022/04/02 02:07:58;;;;;;;18.07;16.30;;;2.90;99.90;;;;;;5033145;28;20975;-67
2022/04/02 02:10:24;;;;;;;16.83;15.13;;;2.70;99.90;;;;;;5039770;28;20509;-67
2022/04/02 02:12:50;;;;;;;18.27;16.53;;;2.80;99.90;;;;;;5035419;28;20266;-67
2022/04/02 02:15:18;;;;;;;18.80;16.80;;;3.00;99.90;;;;;;5035595;28;20676;-67
2022/04/02 02:17:45;;;;;;;16.70;15.13;;;2.70;99.90;;;;;;5035355;28;20254;-67
2022/04/02 02:20:12;;;;;;;19.23;16.83;;;2.80;99.90;;;;;;5035339;28;20969;-67
2022/04/02 02:22:42;;;;;;;17.93;16.23;;;2.80;99.90;;;;;;5035247;28;20465;-67
2022/04/02 02:25:09;;;;;;;16.80;15.07;;;3.00;99.90;;;;;;5035157;28;20931;-67
2022/04/02 02:27:35;;;;;;;17.60;15.37;;;2.90;99.90;;;;;;5036069;28;20760;-67
2022/04/02 02:30:05;;;;;;;18.63;15.47;;;2.70;99.90;;;;;;5035744;28;20414;-67
2022/04/02 02:32:35;;;;;;;16.83;15.20;;;2.70;99.90;;;;;;5017184;28;20452;-67
2022/04/02 02:37:45;;;;;;;15.83;14.23;;;2.60;99.90;;;;;;5035347;28;20397;-67
2022/04/02 02:40:12;;;;;;;15.40;14.00;;;2.50;99.90;;;;;;5034602;28;20914;-67
2022/04/02 02:42:38;;;;;;;18.67;16.87;;;2.40;99.90;;;;;;5034895;28;20616;-67
2022/04/02 02:45:04;;;;;;;18.27;16.30;;;2.70;99.90;;;;;;5034747;28;20438;-67
2022/04/02 02:47:30;;;;;;;17.10;15.33;;;2.80;99.90;;;;;;5035018;28;20813;-67
2022/04/02 02:49:56;;;;;;;17.00;15.30;;;2.70;99.90;;;;;;5017094;28;20415;-68
2022/04/02 02:52:21;;;;;;;15.80;14.20;;;2.90;99.90;;;;;;5034607;28;20648;-68
2022/04/02 02:54:47;;;;;;;15.20;13.73;;;2.90;99.90;;;;;;5034130;28;20187;-68
2022/04/02 02:57:13;;;;;;;15.00;13.63;;;2.80;99.90;;;;;;5034490;28;20167;-68
2022/04/02 02:59:38;;;;;;;13.47;12.03;;;2.80;99.90;;;;;;5034441;28;20175;-67
2022/04/02 03:02:04;;;;;;;14.90;13.60;;;2.70;99.90;;;;;;5025054;28;20578;-67
2022/04/02 03:04:30;;;;;;;15.17;13.70;;;2.70;99.90;;;;;;5014603;28;20167;-67
2022/04/02 03:06:57;;;;;;;15.87;14.27;;;2.70;99.90;;;;;;5014774;28;20250;-68
2022/04/02 03:09:22;;;;;;;15.70;14.10;;;2.60;99.90;;;;;;5019929;28;20777;-69
2022/04/02 03:11:49;;;;;;;16.27;14.63;;;2.70;99.90;;;;;;5033937;28;20440;-68
2022/04/02 03:14:15;;;;;;;17.70;15.77;;;2.70;99.90;;;;;;5034123;28;20410;-68
2022/04/02 03:16:41;;;;;;;17.10;15.30;;;2.60;99.90;;;;;;5034405;28;20414;-68
2022/04/02 03:19:07;;;;;;;15.17;13.67;;;2.50;99.90;;;;;;5034189;28;20898;-68
2022/04/02 03:21:32;;;;;;;14.40;12.90;;;2.60;99.90;;;;;;5033141;28;20273;-68
2022/04/02 03:23:58;;;;;;;13.40;12.10;;;2.50;99.90;;;;;;5034225;28;20631;-68
2022/04/02 03:26:27;;;;;;;15.63;13.57;;;2.40;99.90;;;;;;5033514;28;20608;-67
2022/04/02 03:28:53;;;;;;;15.43;13.90;;;2.30;99.90;;;;;;5034596;28;20632;-67
2022/04/02 03:31:19;;;;;;;14.47;13.07;;;2.30;99.90;;;;;;5033703;28;20476;-68
2022/04/02 03:33:45;;;;;;;14.80;13.40;;;2.20;99.90;;;;;;5033960;28;20164;-68
2022/04/02 03:36:11;;;;;;;15.67;14.07;;;2.30;99.90;;;;;;5033999;28;20425;-68
2022/04/02 03:38:40;;;;;;;15.10;13.67;;;2.20;99.90;;;;;;5033771;28;20444;-68
2022/04/02 03:41:05;;;;;;;15.53;13.73;;;2.10;99.90;;;;;;5033048;28;20616;-68
2022/04/02 03:43:31;;;;;;;20.23;15.13;;;2.20;99.90;;;;;;5033608;28;20452;-68
2022/04/02 03:47:08;;;;;;;20.07;14.57;;;2.30;99.90;;;;;;5033975;28;20163;-67
2022/04/02 03:48:43;;;;;;;16.03;12.60;;;2.30;99.90;;;;;;5033406;28;20414;-68
2022/04/02 03:51:09;;;;;;;17.43;13.83;;;2.20;99.90;;;;;;5033715;28;20441;-68
2022/04/02 03:53:35;;;;;;;22.57;12.80;;;2.00;99.90;;;;;;5033748;28;20690;-67
2022/04/02 03:56:02;;;;;;;18.80;13.07;;;1.90;99.90;;;;;;5032249;28;20430;-68
2022/04/02 03:58:28;;;;;;;15.17;12.20;;;1.90;99.90;;;;;;5033610;28;20413;-68
2022/04/02 04:00:53;;;;;;;16.17;14.57;;;1.90;99.90;;;;;;5033133;28;20454;-67
2022/04/02 04:03:19;;;;;;;17.37;11.67;;;2.00;99.90;;;;;;5033309;28;20640;-67
2022/04/02 04:05:45;;;;;;;14.13;12.53;;;2.00;99.90;;;;;;5033230;28;20173;-66
2022/04/02 04:08:11;;;;;;;17.80;12.07;;;2.10;99.90;;;;;;5033150;28;20167;-67
2022/04/02 04:10:37;;;;;;;15.20;11.20;;;2.00;99.90;;;;;;5031905;28;20422;-67
2022/04/02 04:13:02;;;;;;;12.37;11.17;;;2.00;99.90;;;;;;5033114;28;20193;-67
2022/04/02 04:15:28;;;;;;;14.77;12.07;;;2.00;99.90;;;;;;5033257;28;20167;-67
2022/04/02 04:17:56;;;;;;;13.70;11.90;;;2.00;99.90;;;;;;5033087;28;20171;-67
2022/04/02 04:20:22;;;;;;;13.70;10.67;;;2.00;99.90;;;;;;5033387;28;20521;-68
2022/04/02 04:22:47;;;;;;;16.07;10.67;;;2.10;99.90;;;;;;5032914;28;20454;-68
2022/04/02 04:25:13;;;;;;;12.23;10.00;;;2.10;99.90;;;;;;5032708;28;20174;-68
2022/04/02 04:27:39;;;;;;;18.67;11.93;;;2.10;99.90;;;;;;5032929;28;20175;-67
2022/04/02 04:30:06;;;;;;;14.30;12.80;;;2.10;99.90;;;;;;5033012;28;20535;-68
2022/04/02 04:32:32;;;;;;;13.00;11.20;;;2.10;99.90;;;;;;5035525;22;20497;-67
2022/04/02 04:34:58;;;;;;;17.53;12.27;;;2.20;99.90;;;;;;5021998;28;20409;-67
2022/04/02 04:37:24;;;;;;;12.30;10.10;;;2.30;99.90;;;;;;4995744;28;20410;-66
2022/04/02 04:39:50;;;;;;;17.83;12.80;;;2.20;99.90;;;;;;5019106;28;20817;-66
2022/04/02 04:42:16;;;;;;;14.60;11.67;;;2.20;99.90;;;;;;5032857;28;20461;-67
2022/04/02 04:44:43;;;;;;;13.67;11.83;;;2.20;99.90;;;;;;5033010;28;20587;-68
2022/04/02 04:47:09;;;;;;;14.70;11.90;;;2.30;99.90;;;;;;5032978;28;20394;-68
2022/04/02 04:49:35;;;;;;;16.63;12.30;;;2.40;99.90;;;;;;5032745;28;20406;-67
2022/04/02 04:52:01;;;;;;;14.53;11.63;;;2.30;99.90;;;;;;5032644;28;20194;-68
2022/04/02 04:54:26;;;;;;;15.00;13.13;;;2.20;99.90;;;;;;5032708;28;20267;-68
2022/04/02 04:56:52;;;;;;;13.97;12.67;;;1.90;99.90;;;;;;5032163;28;20694;-67
2022/04/02 04:59:17;;;;;;;14.03;12.77;;;1.90;99.90;;;;;;5032858;28;20167;-66
2022/04/02 05:01:43;;;;;;;15.20;13.70;;;1.90;99.90;;;;;;5033044;28;20230;-68
2022/04/02 05:04:08;;;;;;;17.27;15.47;;;1.80;99.90;;;;;;5032741;28;20173;-68
2022/04/02 05:06:35;;;;;;;17.13;15.33;;;1.90;99.90;;;;;;5032961;28;20306;-67
2022/04/02 05:09:01;;;;;;;15.93;14.10;;;1.90;99.90;;;;;;5014468;28;20190;-66
2022/04/02 05:11:27;;;;;;;15.73;14.13;;;1.90;99.90;;;;;;5033707;28;20414;-67
2022/04/02 05:13:52;;;;;;;15.63;13.93;;;2.00;99.90;;;;;;5032939;28;20168;-67
2022/04/02 05:16:18;;;;;;;16.10;14.60;;;2.10;99.90;;;;;;5032621;28;20163;-67
2022/04/02 05:18:44;;;;;;;14.17;12.87;;;2.00;99.90;;;;;;5032756;28;20198;-67
2022/04/02 05:21:10;;;;;;;18.93;15.10;;;1.90;99.90;;;;;;5031999;28;20198;-67
2022/04/02 05:23:36;;;;;;;15.53;13.93;;;2.00;99.90;;;;;;5031212;28;20183;-68
2022/04/02 05:26:02;;;;;;;16.47;13.43;;;2.00;99.90;;;;;;5032697;28;20402;-68
2022/04/02 05:28:28;;;;;;;14.00;12.80;;;2.10;99.90;;;;;;5032793;28;20179;-67
2022/04/02 05:30:54;;;;;;;14.40;12.90;;;2.10;99.90;;;;;;5032455;28;20163;-67
2022/04/02 05:33:21;;;;;;;14.80;13.30;;;2.00;99.90;;;;;;5032098;28;20199;-67
2022/04/02 05:35:48;;;;;;;14.60;12.50;;;2.00;99.90;;;;;;5032010;28;20967;-68
2022/04/02 05:38:13;;;;;;;14.93;13.43;;;1.90;99.90;;;;;;5031656;28;20409;-67
2022/04/02 05:40:39;;;;;;;12.37;11.17;;;1.80;99.90;;;;;;5032030;28;20914;-67
2022/04/02 05:43:06;;;;;;;15.23;13.60;;;1.70;99.90;;;;;;5032656;28;20425;-68
2022/04/02 05:45:33;;;;;;;14.40;12.93;;;1.70;99.90;;;;;;5016831;28;20459;-68
2022/04/02 05:47:58;;;;;;;13.33;11.93;;;2.00;99.90;;;;;;5036071;28;20409;-68
2022/04/02 05:50:26;;;;;;;13.20;12.00;;;1.90;99.90;;;;;;5036373;28;20770;-68
2022/04/02 05:52:52;;;;;;;12.30;11.20;;;1.70;99.90;;;;;;5035381;28;20225;-68
2022/04/02 05:55:18;;;;;;;11.77;10.70;;;1.90;99.90;;;;;;5035449;28;20405;-68
2022/04/02 05:57:45;;;;;;;15.50;14.00;;;1.70;99.90;;;;;;5035758;28;20402;-68
2022/04/02 06:00:13;;;;;;;14.03;12.67;;;1.80;99.90;;;;;;5035450;28;20413;-67
2022/04/02 06:02:39;;;;;;;13.40;12.20;;;1.70;99.90;;;;;;5035435;28;20456;-68
2022/04/02 06:05:07;;;;;;;12.93;11.63;;;1.80;99.90;;;;;;5034628;28;20810;-68
2022/04/02 06:07:33;;;;;;;11.90;10.80;;;1.70;99.90;;;;;;5035304;28;20929;-68
2022/04/02 06:09:59;;;;;;;119.73;68.47;;;1.60;99.90;;;;;;5035254;28;20460;-68
2022/04/02 06:12:25;;;;;;;13.57;12.27;;;1.70;99.90;;;;;;5035439;28;20426;-68
2022/04/02 06:14:50;;;;;;;16.63;14.77;;;1.60;99.90;;;;;;5035357;28;20240;-68
2022/04/02 06:17:16;;;;;;;14.67;13.20;;;1.80;99.90;;;;;;5035230;28;20217;-68
2022/04/02 06:19:41;;;;;;;34.13;24.20;;;1.80;99.90;;;;;;5034873;28;20166;-68
2022/04/02 06:22:07;;;;;;;15.07;13.60;;;1.80;99.90;;;;;;5017305;28;20203;-68
2022/04/02 06:24:34;;;;;;;12.37;11.27;;;1.80;99.90;;;;;;5034747;28;20191;-68
2022/04/02 06:27:00;;;;;;;12.77;11.57;;;1.80;99.90;;;;;;5017276;28;20167;-68
2022/04/02 06:29:25;;;;;;;17.43;15.77;;;1.90;99.90;;;;;;5035036;28;20497;-68
2022/04/02 06:31:51;;;;;;;16.00;14.50;;;1.90;99.90;;;;;;5035084;28;20325;-67
2022/04/02 06:34:17;;;;;;;13.30;12.03;;;1.90;99.90;;;;;;5035026;28;20169;-66
2022/04/02 06:36:42;;;;;;;11.70;10.70;;;2.00;99.90;;;;;;5035160;28;20273;-66
2022/04/02 06:39:08;;;;;;;12.90;9.93;;;1.90;99.90;;;;;;5035279;28;20286;-68
2022/04/02 06:41:33;;;;;;;12.07;10.67;;;1.90;99.90;;;;;;5034640;28;20575;-68
2022/04/02 06:43:59;;;;;;;11.60;10.60;;;1.80;99.90;;;;;;5034865;28;20163;-68
2022/04/02 06:46:25;;;;;;;12.50;10.47;;;1.80;99.90;;;;;;5034659;28;20167;-68
2022/04/02 06:48:50;;;;;;;11.30;10.20;;;1.90;99.90;;;;;;5034699;28;20205;-67
2022/04/02 06:51:17;;;;;;;10.33;9.43;;;1.80;99.90;;;;;;5034758;28;20174;-68
2022/04/02 06:53:43;;;;;;;11.73;10.63;;;2.00;99.90;;;;;;5034674;28;20643;-68
2022/04/02 06:56:08;;;;;;;11.90;10.80;;;2.00;99.90;;;;;;5033237;28;20452;-68
2022/04/02 06:58:36;;;;;;;11.13;10.00;;;2.00;99.90;;;;;;5034137;28;20433;-67
2022/04/02 07:01:02;;;;;;;12.00;10.83;;;1.90;99.90;;;;;;5034554;28;20195;-68
2022/04/02 07:03:28;;;;;;;10.93;9.93;;;2.00;99.90;;;;;;5034294;28;20422;-68
2022/04/02 07:05:53;;;;;;;10.40;9.27;;;1.90;99.90;;;;;;5034403;28;20421;-68
2022/04/02 07:08:19;;;;;;;12.83;11.63;;;1.80;99.90;;;;;;5034584;28;20163;-68
2022/04/02 07:10:45;;;;;;;12.00;10.80;;;1.90;99.90;;;;;;5033194;28;20245;-67
2022/04/02 07:13:10;;;;;;;10.47;9.40;;;2.00;99.90;;;;;;5034247;28;20184;-68
2022/04/02 07:15:38;;;;;;;10.10;9.20;;;2.00;99.90;;;;;;5036902;28;20175;-66
2022/04/02 07:18:08;;;;;;;14.33;9.80;;;1.90;99.90;;;;;;5034229;28;20213;-67
2022/04/02 07:20:35;;;;;;;11.43;10.10;;;1.90;99.90;;;;;;5034271;28;20417;-67
2022/04/02 07:23:07;;;;;;;11.07;10.10;;;1.90;99.90;;;;;;5034311;28;20437;-67
2022/04/02 07:25:37;;;;;;;11.20;10.20;;;2.00;99.90;;;;;;5032756;28;20436;-67
2022/04/02 07:28:04;;;;;;;10.67;9.67;;;2.10;99.90;;;;;;5016404;28;20422;-68
2022/04/02 07:30:34;;;;;;;9.53;8.47;;;2.00;99.90;;;;;;5034404;28;20975;-67
2022/04/02 07:33:00;;;;;;;10.80;9.73;;;1.90;99.90;;;;;;5033634;28;20574;-67
2022/04/02 07:35:34;;;;;;;12.73;9.60;;;1.90;99.90;;;;;;5034230;28;20413;-67
2022/04/02 07:38:20;;;;;;;12.40;10.47;;;1.80;99.90;;;;;;5034035;28;20402;-67
2022/04/02 07:40:52;;;;;;;11.87;10.80;;;1.80;99.90;;;;;;5033140;28;20781;-68
2022/04/02 07:43:43;;;;;;;11.50;10.40;;;1.90;99.90;;;;;;5033630;28;20814;-68
2022/04/02 07:46:14;;;;;;;12.40;11.20;;;1.80;99.90;;;;;;5033859;28;20390;-68
2022/04/02 07:48:41;;;;;;;11.20;10.10;;;1.70;99.90;;;;;;5033891;28;20766;-67
2022/04/02 07:51:15;;;;;;;10.93;9.87;;;1.60;99.90;;;;;;5033634;28;20749;-68
2022/04/02 07:53:50;;;;;;;10.47;9.10;;;1.70;99.90;;;;;;5033401;28;20408;-68
2022/04/02 07:56:26;;;;;;;12.33;11.13;;;1.70;99.90;;;;;;5033154;28;20396;-68
2022/04/02 07:58:57;;;;;;;10.70;9.70;;;1.70;99.90;;;;;;5033835;28;20878;-68
2022/04/02 08:01:24;;;;;;;11.90;10.67;;;1.70;99.90;;;;;;5033317;28;20430;-67
2022/04/02 08:03:51;;;;;;;12.00;10.90;;;1.70;99.90;;;;;;5033254;28;20493;-67
2022/04/02 08:06:19;;;;;;;12.37;10.07;;;1.60;99.90;;;;;;5033762;28;20413;-67
2022/04/02 08:08:45;;;;;;;11.80;10.77;;;1.80;99.90;;;;;;5032748;28;20398;-67
2022/04/02 08:11:12;;;;;;;10.50;9.50;;;1.90;99.90;;;;;;5031694;28;20556;-67
2022/04/02 08:13:41;;;;;;;11.20;10.17;;;2.00;99.90;;;;;;5032872;28;20422;-68
2022/04/02 08:16:11;;;;;;;10.93;10.00;;;1.90;99.90;;;;;;5033299;28;20402;-68
2022/04/02 08:18:41;;;;;;;10.10;9.10;;;1.70;99.90;;;;;;5031826;28;20432;-68
2022/04/02 08:21:07;;;;;;;10.13;9.10;;;1.80;99.90;;;;;;5033105;28;20448;-68
2022/04/02 08:23:33;;;;;;;10.37;9.37;;;1.90;99.90;;;;;;5032735;28;20522;-68
2022/04/02 08:26:08;;;;;;;11.17;10.17;;;1.80;99.90;;;;;;5033117;28;20477;-68
2022/04/02 08:29:09;;;;;;;9.73;8.80;;;1.70;99.90;;;;;;5034540;28;20241;-68
2022/04/02 08:31:58;;;;;;;10.47;9.37;;;1.70;99.90;;;;;;5033320;28;20445;-68
2022/04/02 08:34:51;;;;;;;11.10;10.00;;;1.80;99.90;;;;;;5032571;28;20405;-65
2022/04/02 08:37:51;;;;;;;10.30;9.40;;;1.60;99.90;;;;;;5032023;28;20422;-68
2022/04/02 08:40:53;;;;;;;11.73;10.50;;;1.50;99.90;;;;;;5014884;28;20463;-68
2022/04/02 08:43:19;;;;;;;11.13;10.03;;;1.60;99.90;;;;;;5033076;28;20440;-68
2022/04/02 08:46:04;;;;;;;11.43;10.27;;;1.60;99.90;;;;;;5032598;28;20393;-68
2022/04/02 08:48:35;;;;;;;12.83;11.53;;;1.60;99.90;;;;;;5033164;28;20185;-69
2022/04/02 08:51:17;;;;;;;10.90;9.90;;;1.80;99.90;;;;;;5032589;28;20432;-68
2022/04/02 08:53:47;;;;;;;12.17;10.87;;;1.60;99.90;;;;;;5031767;28;20491;-66
2022/04/02 08:56:22;;;;;;;10.93;9.83;;;1.70;99.90;;;;;;5032547;28;20825;-68
2022/04/02 08:59:07;;;;;;;13.20;10.50;;;1.80;99.90;;;;;;5032846;28;20386;-68
2022/04/02 09:01:57;;;;;;;11.90;10.80;;;2.00;99.90;;;;;;5032893;28;20455;-68
2022/04/02 09:04:35;;;;;;;11.60;10.40;;;1.70;99.90;;;;;;5032156;28;20834;-68
2022/04/02 09:07:26;;;;;;;12.07;10.73;;;1.70;99.90;;;;;;5032431;28;20921;-68
2022/04/02 09:10:18;;;;;;;11.87;10.67;;;1.80;99.90;;;;;;5031974;28;20468;-70
2022/04/02 09:13:40;;;;;;;12.40;11.10;;;2.00;99.90;;;;;;5028699;28;20445;-70
2022/04/02 09:16:08;;;;;;;11.83;10.63;;;1.90;99.90;;;;;;4952498;29;20416;-70
2022/04/02 09:19:18;;;;;;;13.77;11.30;;;1.90;99.90;;;;;;4952081;29;20421;-70
2022/04/02 09:22:05;;;;;;;13.47;11.40;;;1.90;99.90;;;;;;5028479;28;20467;-70
2022/04/02 09:24:37;;;;;;;12.60;11.40;;;2.10;99.90;;;;;;5035224;28;20467;-70
2022/04/02 09:27:14;;;;;;;13.07;11.87;;;1.90;99.90;;;;;;5036532;28;20408;-69
2022/04/02 09:30:03;;;;;;;14.33;10.90;;;1.80;99.90;;;;;;5036196;28;20408;-69
2022/04/02 09:32:40;;;;;;;12.67;11.37;;;1.70;99.90;;;;;;5035908;28;20453;-70
2022/04/02 09:35:40;;;;;;;12.07;10.73;;;1.90;99.90;;;;;;5036433;28;20470;-70
2022/04/02 09:38:30;;;;;;;13.43;11.83;;;1.80;99.90;;;;;;5036235;28;20397;-70
2022/04/02 09:41:14;;;;;;;14.00;12.50;;;1.90;99.90;;;;;;5017973;28;20423;-70
2022/04/02 09:44:03;;;;;;;13.67;12.23;;;1.80;99.90;;;;;;5036193;28;20418;-70
2022/04/02 09:46:53;;;;;;;13.93;12.53;;;1.90;99.90;;;;;;5036288;28;20462;-68
2022/04/02 09:49:35;;;;;;;13.77;12.47;;;1.80;99.90;;;;;;5035766;28;20417;-70
2022/04/02 09:52:06;;;;;;;14.33;12.57;;;1.60;99.90;;;;;;5035610;28;20480;-71
2022/04/02 09:54:44;;;;;;;16.83;13.30;;;1.70;99.90;;;;;;5035013;28;20521;-69
2022/04/02 09:57:22;;;;;;;12.97;11.67;;;1.70;99.90;;;;;;5036202;28;20762;-70
2022/04/02 09:59:56;;;;;;;12.90;11.70;;;1.70;99.90;;;;;;5035547;28;20409;-69
2022/04/02 10:03:08;;;;;;;12.37;10.30;;;1.80;99.90;;;;;;5035630;28;20463;-69
2022/04/02 10:05:33;;;;;;;12.97;11.63;;;1.80;99.90;;;;;;5032102;28;20413;-69
2022/04/02 10:08:11;;;;;;;13.07;11.00;;;1.80;99.90;;;;;;5035504;28;20401;-69
2022/04/02 10:10:38;;;;;;;14.30;12.90;;;1.80;99.90;;;;;;5016044;28;20544;-69
2022/04/02 10:13:05;;;;;;;11.90;10.70;;;1.90;99.90;;;;;;5035321;28;20426;-70
2022/04/02 10:15:32;;;;;;;12.63;11.43;;;1.80;99.90;;;;;;5036739;28;20413;-70
2022/04/02 10:18:02;;;;;;;14.60;13.10;;;1.70;99.90;;;;;;5016850;28;20429;-68
2022/04/02 10:20:29;;;;;;;13.13;11.77;;;1.80;99.90;;;;;;5035552;28;20818;-70
2022/04/02 10:23:15;;;;;;;13.20;11.73;;;1.80;99.90;;;;;;5035687;28;20461;-69
2022/04/02 10:26:07;;;;;;;13.60;12.20;;;1.40;99.90;;;;;;5034929;28;20393;-70
2022/04/02 10:28:43;;;;;;;14.90;11.87;;;1.50;99.90;;;;;;5034818;28;20418;-70
2022/04/02 10:31:15;;;;;;;15.67;13.47;;;1.70;99.90;;;;;;5035378;28;20418;-69
2022/04/02 10:33:48;;;;;;;15.43;12.33;;;1.70;99.90;;;;;;5074324;23;20492;-70
2022/04/02 10:36:15;;;;;;;12.40;11.17;;;1.70;99.90;;;;;;5053855;28;20916;-70
2022/04/02 10:38:47;;;;;;;11.77;10.60;;;1.70;99.90;;;;;;5054613;28;20412;-70
2022/04/02 10:41:17;;;;;;;13.27;12.07;;;1.80;99.90;;;;;;5054673;28;20439;-70
2022/04/02 10:44:02;;;;;;;13.53;12.00;;;1.90;99.90;;;;;;5054900;28;20424;-70
2022/04/02 10:46:32;;;;;;;17.10;13.30;;;1.70;99.90;;;;;;5054815;28;20380;-70
2022/04/02 10:49:00;;;;;;;15.40;12.97;;;1.70;99.90;;;;;;5054489;28;20401;-70
2022/04/02 10:51:28;;;;;;;17.33;15.53;;;1.90;99.90;;;;;;5054460;28;20462;-70
2022/04/02 10:54:08;;;;;;;14.37;12.83;;;2.10;99.90;;;;;;5054389;28;20422;-70
2022/04/02 10:56:47;;;;;;;13.10;11.70;;;2.20;99.90;;;;;;5054298;28;20440;-69
2022/04/02 10:59:15;;;;;;;12.40;11.20;;;1.90;99.90;;;;;;5054709;28;20412;-69
2022/04/02 11:01:46;;;;;;;11.23;10.20;;;1.70;99.90;;;;;;5054437;28;20433;-71
2022/04/02 11:04:52;;;;;;;13.10;11.50;;;1.80;99.90;;;;;;5054262;28;20457;-70
2022/04/02 11:07:29;;;;;;;15.03;12.87;;;1.90;99.90;;;;;;5036510;28;20416;-70
2022/04/02 11:09:57;;;;;;;13.77;12.27;;;2.00;99.90;;;;;;5054472;28;20448;-71
2022/04/02 11:12:42;;;;;;;15.00;13.40;;;2.00;99.90;;;;;;5053008;28;20448;-70
2022/04/02 11:15:12;;;;;;;14.00;12.60;;;2.10;99.90;;;;;;5054336;28;20754;-70
2022/04/02 11:17:41;;;;;;;14.83;12.73;;;2.10;99.90;;;;;;5055748;28;20465;-70
2022/04/02 11:20:16;;;;;;;14.10;12.60;;;2.20;99.90;;;;;;5054535;28;20411;-70
2022/04/02 11:22:51;;;;;;;13.93;12.63;;;2.10;99.90;;;;;;5053882;28;20460;-69
2022/04/02 11:25:29;;;;;;;14.60;13.10;;;2.10;99.90;;;;;;5054475;28;20373;-69
2022/04/02 11:28:15;;;;;;;13.63;12.33;;;2.00;99.90;;;;;;5054192;28;20746;-70
2022/04/02 11:31:05;;;;;;;16.10;14.33;;;1.90;99.90;;;;;;5054174;28;20377;-69
2022/04/02 11:33:32;;;;;;;14.20;12.80;;;2.00;99.90;;;;;;5045799;28;20502;-70
2022/04/02 11:36:03;;;;;;;15.33;13.73;;;2.00;99.90;;;;;;5053968;28;20409;-69
2022/04/02 11:38:34;;;;;;;16.17;14.47;;;2.00;99.90;;;;;;5053945;28;20425;-70
2022/04/02 11:41:21;;;;;;;14.60;13.30;;;2.50;99.90;;;;;;5052905;28;20410;-69
2022/04/02 11:43:52;;;;;;;13.57;12.27;;;2.80;99.90;;;;;;5053163;28;20428;-70
2022/04/02 11:46:20;;;;;;;13.40;12.10;;;2.50;99.90;;;;;;5053883;28;20667;-69
2022/04/02 11:48:49;;;;;;;14.80;13.40;;;2.40;99.90;;;;;;5053440;28;20939;-69
2022/04/02 11:51:20;;;;;;;13.17;11.87;;;2.40;99.90;;;;;;5053401;28;20771;-70
2022/04/02 11:53:46;;;;;;;15.80;14.20;;;2.30;99.90;;;;;;5053352;28;20431;-70
2022/04/02 11:56:28;;;;;;;15.20;13.80;;;2.10;99.90;;;;;;5035075;28;20416;-71
2022/04/02 11:58:59;;;;;;;14.70;13.30;;;1.90;99.90;;;;;;5053427;28;20172;-68
2022/04/02 12:01:26;;;;;;;19.20;15.90;;;1.80;99.90;;;;;;5053482;28;20427;-69
2022/04/02 12:04:06;;;;;;;17.87;16.17;;;1.70;99.90;;;;;;5053361;28;20432;-69
2022/04/02 12:06:36;;;;;;;15.90;14.30;;;1.90;99.90;;;;;;5052530;28;20416;-69
2022/04/02 12:09:21;;;;;;;17.23;15.53;;;2.00;99.90;;;;;;5053299;28;20505;-68
2022/04/02 12:11:52;;;;;;;16.63;13.40;;;2.10;99.90;;;;;;5052817;28;20408;-69
2022/04/02 12:14:37;;;;;;;18.50;16.60;;;2.20;99.90;;;;;;5053675;28;20456;-70
2022/04/02 12:17:14;;;;;;;19.70;17.20;;;2.40;99.90;;;;;;5053510;28;20412;-70
2022/04/02 12:19:53;;;;;;;20.60;18.53;;;2.40;99.90;;;;;;5053221;28;20472;-69
2022/04/02 12:22:34;;;;;;;17.97;16.17;;;2.60;99.90;;;;;;5052703;28;20463;-70
2022/04/02 12:25:05;;;;;;;16.80;15.00;;;2.40;99.90;;;;;;5053080;28;20458;-70
2022/04/02 12:27:33;;;;;;;17.47;15.67;;;2.10;99.90;;;;;;5052441;28;20917;-70
2022/04/02 12:30:02;;;;;;;16.90;15.30;;;2.20;99.90;;;;;;5052954;28;20418;-71
2022/04/02 12:32:33;;;;;;;18.03;16.37;;;2.20;99.90;;;;;;5051411;28;20566;-71
2022/04/02 12:35:08;;;;;;;16.53;14.83;;;2.30;99.90;;;;;;5052960;28;20429;-70
2022/04/02 12:37:49;;;;;;;17.80;16.20;;;2.30;99.90;;;;;;5052925;28;20482;-70
2022/04/02 12:40:21;;;;;;;18.83;16.90;;;2.30;99.90;;;;;;5052856;28;20452;-70
2022/04/02 12:42:48;;;;;;;18.97;17.17;;;2.30;99.90;;;;;;5052555;28;20456;-71
2022/04/02 12:45:20;;;;;;;20.03;18.00;;;2.20;99.90;;;;;;5052600;28;20405;-71
2022/04/02 12:48:04;;;;;;;19.20;17.40;;;2.00;99.90;;;;;;5034301;28;20420;-71
2022/04/02 12:50:38;;;;;;;17.13;15.43;;;2.00;99.90;;;;;;5052634;28;20393;-69
2022/04/02 12:53:05;;;;;;;18.30;16.40;;;2.00;99.90;;;;;;5052897;28;20456;-70
2022/04/02 12:55:34;;;;;;;16.73;14.97;;;2.20;99.90;;;;;;5056894;28;20413;-70
2022/04/02 12:58:07;;;;;;;19.87;17.87;;;2.10;99.90;;;;;;5057488;28;20498;-70
2022/04/02 13:00:41;;;;;;;20.30;18.20;;;2.10;99.90;;;;;;5056979;28;20404;-70